createdAt,value
2022-07-25T00:00:09.693Z,67.60
2022-07-25T00:02:36.648Z,67.78
2022-07-25T00:05:04.024Z,67.68
2022-07-25T00:07:30.423Z,67.72
2022-07-25T00:09:56.882Z,67.89
2022-07-25T00:12:23.352Z,67.73
2022-07-25T00:14:49.791Z,67.94
2022-07-25T00:17:16.192Z,68.02
2022-07-25T00:19:42.667Z,67.72
2022-07-25T00:22:09.094Z,68.00
2022-07-25T00:24:35.512Z,67.78
2022-07-25T00:27:02.905Z,67.90
2022-07-25T00:29:29.448Z,67.91
2022-07-25T00:31:55.820Z,67.86
2022-07-25T00:34:22.432Z,67.76
2022-07-25T00:36:48.860Z,67.82
2022-07-25T00:39:15.308Z,68.08
2022-07-25T00:41:41.873Z,67.91
2022-07-25T00:44:09.202Z,67.99
2022-07-25T00:46:38.369Z,67.87
2022-07-25T00:49:05.022Z,67.83
2022-07-25T00:51:31.572Z,68.00
2022-07-25T00:53:58.012Z,67.95
2022-07-25T00:56:24.674Z,68.07
2022-07-25T00:58:51.132Z,68.05
2022-07-25T01:01:17.610Z,67.88
2022-07-25T01:03:44.077Z,67.89
2022-07-25T01:06:10.532Z,67.71
2022-07-25T01:08:37.240Z,68.13
2022-07-25T01:11:03.909Z,67.66
2022-07-25T01:13:32.163Z,67.82
2022-07-25T01:15:58.665Z,67.60
2022-07-25T01:18:25.071Z,67.74
2022-07-25T01:20:51.619Z,67.76
2022-07-25T01:23:18.087Z,67.77
2022-07-25T01:25:44.652Z,67.65
2022-07-25T01:28:11.839Z,67.74
2022-07-25T01:30:38.349Z,67.49
2022-07-25T01:33:06.651Z,67.32
2022-07-25T01:35:33.919Z,67.58
2022-07-25T01:38:00.367Z,67.42
2022-07-25T01:40:26.980Z,67.36
2022-07-25T01:42:53.395Z,67.44
2022-07-25T01:45:19.819Z,67.33
2022-07-25T01:47:46.215Z,67.36
2022-07-25T01:50:12.616Z,67.30
2022-07-25T01:55:17.180Z,67.25
2022-07-25T01:57:49.790Z,67.05
2022-07-25T02:00:17.488Z,67.07
2022-07-25T02:02:44.399Z,67.27
2022-07-25T02:05:12.080Z,67.30
2022-07-25T02:07:38.688Z,67.19
2022-07-25T02:10:06.124Z,67.04
2022-07-25T02:12:32.547Z,67.35
2022-07-25T02:14:59.152Z,67.04
2022-07-25T02:17:25.655Z,67.00
2022-07-25T02:19:52.110Z,66.97
2022-07-25T02:22:18.601Z,67.05
2022-07-25T02:24:45.085Z,66.93
2022-07-25T02:27:11.494Z,66.92
2022-07-25T02:29:37.887Z,67.04
2022-07-25T02:32:04.473Z,66.81
2022-07-25T02:34:30.877Z,66.81
2022-07-25T02:36:57.348Z,66.85
2022-07-25T02:39:23.805Z,66.71
2022-07-25T02:41:50.260Z,66.77
2022-07-25T02:44:16.621Z,66.83
2022-07-25T02:46:43.050Z,66.69
2022-07-25T02:49:09.640Z,67.03
2022-07-25T02:51:36.081Z,66.76
2022-07-25T02:54:02.470Z,66.78
2022-07-25T02:56:29.894Z,66.82
2022-07-25T02:58:57.395Z,66.94
2022-07-25T03:01:23.889Z,67.07
2022-07-25T03:03:50.424Z,66.69
2022-07-25T03:06:17.097Z,67.01
2022-07-25T03:08:43.502Z,67.06
2022-07-25T03:11:10.970Z,66.84
2022-07-25T03:13:37.354Z,66.94
2022-07-25T03:16:03.836Z,66.79
2022-07-25T03:18:30.312Z,66.71
2022-07-25T03:20:56.820Z,66.83
2022-07-25T03:23:25.064Z,67.02
2022-07-25T03:25:51.432Z,66.94
2022-07-25T03:28:17.821Z,66.81
2022-07-25T03:30:44.529Z,66.73
2022-07-25T03:33:10.923Z,66.82
2022-07-25T03:35:37.687Z,66.76
2022-07-25T03:38:04.131Z,66.79
2022-07-25T03:40:31.688Z,66.89
2022-07-25T03:42:58.099Z,66.82
2022-07-25T03:45:24.495Z,66.97
2022-07-25T03:47:50.847Z,66.83
2022-07-25T03:50:17.267Z,66.30
2022-07-25T03:52:43.639Z,65.81
2022-07-25T03:55:10.760Z,65.97
2022-07-25T03:57:37.406Z,65.48
2022-07-25T04:00:04.825Z,65.57
2022-07-25T04:02:31.294Z,65.40
2022-07-25T04:04:58.194Z,65.17
2022-07-25T04:07:24.570Z,65.35
2022-07-25T04:09:50.940Z,65.38
2022-07-25T04:12:17.433Z,65.26
2022-07-25T04:14:43.889Z,65.42
2022-07-25T04:17:10.363Z,65.12
2022-07-25T04:19:37.270Z,65.30
2022-07-25T04:22:03.951Z,65.38
2022-07-25T04:24:30.366Z,65.29
2022-07-25T04:26:56.752Z,65.41
2022-07-25T04:29:23.171Z,65.66
2022-07-25T04:31:49.716Z,65.74
2022-07-25T04:34:16.246Z,65.63
2022-07-25T04:36:42.717Z,65.62
2022-07-25T04:39:09.119Z,65.63
2022-07-25T04:41:35.509Z,65.56
2022-07-25T04:44:01.861Z,65.75
2022-07-25T04:46:28.276Z,65.87
2022-07-25T04:48:54.786Z,65.68
2022-07-25T04:51:21.227Z,65.73
2022-07-25T04:53:47.655Z,65.85
2022-07-25T04:56:14.168Z,65.70
2022-07-25T04:58:40.959Z,65.97
2022-07-25T05:01:07.466Z,65.76
2022-07-25T05:03:34.045Z,65.95
2022-07-25T05:06:00.435Z,65.92
2022-07-25T05:08:26.852Z,65.75
2022-07-25T05:10:54.050Z,65.76
2022-07-25T05:13:20.573Z,65.97
2022-07-25T05:15:47.003Z,66.08
2022-07-25T05:18:13.385Z,65.94
2022-07-25T05:20:39.809Z,65.71
2022-07-25T05:23:06.195Z,65.85
2022-07-25T05:25:32.558Z,65.72
2022-07-25T05:27:59.143Z,65.71
2022-07-25T05:30:25.610Z,65.86
2022-07-25T05:32:52.239Z,66.02
2022-07-25T05:35:18.739Z,66.07
2022-07-25T05:37:45.101Z,65.99
2022-07-25T05:40:11.510Z,66.02
2022-07-25T05:42:37.916Z,65.96
2022-07-25T05:45:04.752Z,65.93
2022-07-25T05:47:31.488Z,65.91
2022-07-25T05:49:57.864Z,65.88
2022-07-25T05:52:24.258Z,65.99
2022-07-25T05:54:50.757Z,65.81
2022-07-25T05:57:17.189Z,65.79
2022-07-25T05:59:43.587Z,65.92
2022-07-25T06:02:10.083Z,65.91
2022-07-25T06:04:36.638Z,65.87
2022-07-25T06:07:03.050Z,65.89
2022-07-25T06:09:30.600Z,65.61
2022-07-25T06:12:00.341Z,65.09
2022-07-25T06:14:27.792Z,65.46
2022-07-25T06:16:54.875Z,65.74
2022-07-25T06:19:21.332Z,65.84
2022-07-25T06:21:47.728Z,65.76
2022-07-25T06:24:14.140Z,65.54
2022-07-25T06:26:40.676Z,65.31
2022-07-25T06:29:07.226Z,65.10
2022-07-25T06:31:33.775Z,65.50
2022-07-25T06:34:00.263Z,65.84
2022-07-25T06:36:32.125Z,65.94
2022-07-25T06:38:59.386Z,65.91
2022-07-25T06:41:25.817Z,66.20
2022-07-25T06:43:52.256Z,66.28
2022-07-25T06:46:18.782Z,66.02
2022-07-25T06:48:45.351Z,66.43
2022-07-25T06:51:11.826Z,66.40
2022-07-25T06:53:38.288Z,66.63
2022-07-25T06:56:04.848Z,66.63
2022-07-25T06:58:31.233Z,66.70
2022-07-25T07:00:57.697Z,66.80
2022-07-25T07:03:24.176Z,66.63
2022-07-25T07:05:50.591Z,66.80
2022-07-25T07:08:17.089Z,66.76
2022-07-25T07:10:43.797Z,66.91
2022-07-25T07:13:11.491Z,67.22
2022-07-25T07:15:39.436Z,66.92
2022-07-25T07:18:06.626Z,67.33
2022-07-25T07:20:33.104Z,67.39
2022-07-25T07:22:59.645Z,67.49
2022-07-25T07:25:28.335Z,67.25
2022-07-25T07:27:55.077Z,67.58
2022-07-25T07:30:24.819Z,67.74
2022-07-25T07:32:56.258Z,67.52
2022-07-25T07:35:22.926Z,67.82
2022-07-25T07:37:49.308Z,67.92
2022-07-25T07:40:17.790Z,67.51
2022-07-25T07:42:46.201Z,67.76
2022-07-25T07:45:14.029Z,67.82
2022-07-25T07:47:40.494Z,68.01
2022-07-25T07:50:07.332Z,67.92
2022-07-25T07:52:33.762Z,67.77
2022-07-25T07:55:18.964Z,68.10
2022-07-25T07:57:45.400Z,67.93
2022-07-25T08:00:16.437Z,68.22
2022-07-25T08:02:47.146Z,67.80
2022-07-25T08:05:19.548Z,68.05
2022-07-25T08:07:45.967Z,68.06
2022-07-25T08:10:13.270Z,67.87
2022-07-25T08:12:41.056Z,67.79
2022-07-25T08:15:08.216Z,67.84
2022-07-25T08:17:34.646Z,67.69
2022-07-25T08:20:20.620Z,67.74
2022-07-25T08:22:49.963Z,67.69
2022-07-25T08:25:20.572Z,67.76
2022-07-25T08:27:47.504Z,67.65
2022-07-25T08:30:14.660Z,67.74
2022-07-25T08:32:56.305Z,67.34
2022-07-25T08:35:24.340Z,67.66
2022-07-25T08:37:50.887Z,67.51
2022-07-25T08:40:18.781Z,67.78
2022-07-25T08:42:45.750Z,67.70
2022-07-25T08:45:17.725Z,67.71
2022-07-25T08:47:44.712Z,67.82
2022-07-25T08:50:12.814Z,67.50
2022-07-25T08:52:39.385Z,67.48
2022-07-25T08:55:07.592Z,67.66
2022-07-25T08:57:34.859Z,67.84
2022-07-25T09:00:01.378Z,67.54
2022-07-25T09:02:29.035Z,67.78
2022-07-25T09:04:55.616Z,67.65
2022-07-25T09:07:35.508Z,67.16
2022-07-25T09:10:20.253Z,67.64
2022-07-25T09:12:53.916Z,67.32
2022-07-25T09:15:30.810Z,67.47
2022-07-25T09:17:58.672Z,67.28
2022-07-25T09:20:46.979Z,67.45
2022-07-25T09:23:28.286Z,67.69
2022-07-25T09:26:08.260Z,67.51
2022-07-25T09:28:42.465Z,67.28
2022-07-25T09:31:09.863Z,67.29
2022-07-25T09:33:44.772Z,67.28
2022-07-25T09:36:12.038Z,67.42
2022-07-25T09:38:38.438Z,67.34
2022-07-25T09:41:05.400Z,67.43
2022-07-25T09:43:37.802Z,67.44
2022-07-25T09:46:04.365Z,67.68
2022-07-25T09:48:32.179Z,67.69
2022-07-25T09:50:58.982Z,67.91
2022-07-25T09:53:25.468Z,67.89
2022-07-25T09:55:56.902Z,67.81
2022-07-25T09:58:23.927Z,67.92
2022-07-25T10:00:52.136Z,67.87
2022-07-25T10:03:33.549Z,68.09
2022-07-25T10:06:26.079Z,68.00
2022-07-25T10:08:53.363Z,68.11
2022-07-25T10:11:24.042Z,68.22
2022-07-25T10:13:50.879Z,68.17
2022-07-25T10:16:18.827Z,68.46
2022-07-25T10:18:49.670Z,68.45
2022-07-25T10:21:27.008Z,68.31
2022-07-25T10:24:07.777Z,68.28
2022-07-25T10:26:41.387Z,68.23
2022-07-25T10:29:09.278Z,68.17
2022-07-25T10:31:37.171Z,67.82
2022-07-25T10:34:06.223Z,68.30
2022-07-25T10:36:45.312Z,68.11
2022-07-25T10:39:13.308Z,68.10
2022-07-25T10:41:40.517Z,68.17
2022-07-25T10:44:12.128Z,67.99
2022-07-25T10:46:38.652Z,68.26
2022-07-25T10:49:07.000Z,68.35
2022-07-25T10:51:41.658Z,68.30
2022-07-25T10:54:12.266Z,68.42
2022-07-25T10:56:38.949Z,68.38
2022-07-25T10:59:05.500Z,68.51
2022-07-25T11:01:36.654Z,68.60
2022-07-25T11:04:04.589Z,68.36
2022-07-25T11:06:33.799Z,68.56
2022-07-25T11:09:01.401Z,68.45
2022-07-25T11:11:35.419Z,68.52
2022-07-25T11:14:01.927Z,68.51
2022-07-25T11:16:28.561Z,68.36
2022-07-25T11:18:54.983Z,68.24
2022-07-25T11:21:21.600Z,68.38
2022-07-25T11:23:51.854Z,68.38
2022-07-25T11:26:18.331Z,68.60
2022-07-25T11:28:47.255Z,68.63
2022-07-25T11:31:14.712Z,68.64
2022-07-25T11:33:42.552Z,68.55
2022-07-25T11:36:09.812Z,68.33
2022-07-25T11:38:37.013Z,68.28
2022-07-25T11:41:04.068Z,68.12
2022-07-25T11:43:30.804Z,68.25
2022-07-25T11:45:58.841Z,68.34
2022-07-25T11:48:36.130Z,68.18
2022-07-25T11:51:29.535Z,68.44
2022-07-25T11:53:55.916Z,68.44
2022-07-25T11:56:41.747Z,68.42
2022-07-25T11:59:10.118Z,68.61
2022-07-25T12:01:41.360Z,68.63
2022-07-25T12:04:14.415Z,68.43
2022-07-25T12:06:44.540Z,68.64
2022-07-25T12:09:18.788Z,68.59
2022-07-25T12:11:46.995Z,68.68
2022-07-25T12:14:13.826Z,68.66
2022-07-25T12:16:40.408Z,68.43
2022-07-25T12:19:18.174Z,68.46
2022-07-25T12:21:44.807Z,68.61
2022-07-25T12:24:11.236Z,68.56
2022-07-25T12:26:37.855Z,68.71
2022-07-25T12:29:04.669Z,68.59
2022-07-25T12:31:31.190Z,68.42
2022-07-25T12:33:57.648Z,68.76
2022-07-25T12:36:24.111Z,68.77
2022-07-25T12:38:50.615Z,68.82
2022-07-25T12:41:22.630Z,68.85
2022-07-25T12:43:49.906Z,68.89
2022-07-25T12:46:16.747Z,69.00
2022-07-25T12:48:43.777Z,68.87
2022-07-25T12:51:10.271Z,68.71
2022-07-25T12:53:41.763Z,68.67
2022-07-25T12:56:08.850Z,68.82
2022-07-25T12:58:36.163Z,68.62
2022-07-25T13:01:03.697Z,68.68
2022-07-25T13:03:30.187Z,68.92
2022-07-25T13:05:56.609Z,69.01
2022-07-25T13:08:23.095Z,68.75
2022-07-25T13:10:49.525Z,69.21
2022-07-25T13:13:15.928Z,69.09
2022-07-25T13:15:42.368Z,69.10
2022-07-25T13:18:08.807Z,68.89
2022-07-25T13:20:37.533Z,68.99
2022-07-25T13:23:04.024Z,69.08
2022-07-25T13:25:31.328Z,69.18
2022-07-25T13:27:57.811Z,69.01
2022-07-25T13:30:24.272Z,69.15
2022-07-25T13:32:51.577Z,69.28
2022-07-25T13:35:20.693Z,68.92
2022-07-25T13:37:47.623Z,68.44
2022-07-25T13:40:14.127Z,68.23
2022-07-25T13:42:40.606Z,68.37
2022-07-25T13:45:07.340Z,68.71
2022-07-25T13:47:35.563Z,68.80
2022-07-25T13:50:01.947Z,68.75
2022-07-25T13:52:28.335Z,68.74
2022-07-25T13:54:54.700Z,68.75
2022-07-25T13:57:21.121Z,68.87
2022-07-25T13:59:47.500Z,68.81
2022-07-25T14:02:14.209Z,68.68
2022-07-25T14:04:41.118Z,69.05
2022-07-25T14:07:07.498Z,68.74
2022-07-25T14:09:33.888Z,68.88
2022-07-25T14:12:00.264Z,68.95
2022-07-25T14:14:26.727Z,68.92
2022-07-25T14:16:53.645Z,68.92
2022-07-25T14:19:20.731Z,68.95
2022-07-25T14:21:47.141Z,68.66
2022-07-25T14:24:13.599Z,68.93
2022-07-25T14:26:40.036Z,68.95
2022-07-25T14:29:11.086Z,69.02
2022-07-25T14:31:38.606Z,68.77
2022-07-25T14:34:05.296Z,68.84
2022-07-25T14:36:31.804Z,68.64
2022-07-25T14:38:58.260Z,68.92
2022-07-25T14:41:25.212Z,68.83
2022-07-25T14:43:51.668Z,68.64
2022-07-25T14:46:18.194Z,68.92
2022-07-25T14:48:44.700Z,68.84
2022-07-25T14:51:11.331Z,68.76
2022-07-25T14:53:38.327Z,68.77
2022-07-25T14:56:05.605Z,68.86
2022-07-25T14:58:32.227Z,68.94
2022-07-25T15:00:58.677Z,68.86
2022-07-25T15:03:25.202Z,68.82
2022-07-25T15:05:51.687Z,68.90
2022-07-25T15:08:18.076Z,68.69
2022-07-25T15:10:44.594Z,68.69
2022-07-25T15:13:30.501Z,68.78
2022-07-25T15:15:57.672Z,69.08
2022-07-25T15:18:24.181Z,68.84
2022-07-25T15:20:51.923Z,68.63
2022-07-25T15:23:18.686Z,68.82
2022-07-25T15:26:03.758Z,68.85
2022-07-25T15:28:34.504Z,68.80
2022-07-25T15:31:01.139Z,68.94
2022-07-25T15:33:27.800Z,68.72
2022-07-25T15:35:54.322Z,68.97
2022-07-25T15:38:20.791Z,69.05
2022-07-25T15:40:47.234Z,69.06
2022-07-25T15:43:13.695Z,68.85
2022-07-25T15:45:41.647Z,69.07
2022-07-25T15:48:09.287Z,68.79
2022-07-25T15:50:36.493Z,69.23
2022-07-25T15:53:03.080Z,68.93
2022-07-25T15:55:29.488Z,69.14
2022-07-25T15:57:55.873Z,69.11
2022-07-25T16:00:26.126Z,69.05
2022-07-25T16:02:55.875Z,69.13
2022-07-25T16:05:22.564Z,69.13
2022-07-25T16:07:49.021Z,69.02
2022-07-25T16:10:15.619Z,69.05
2022-07-25T16:12:42.170Z,69.15
2022-07-25T16:15:09.347Z,69.24
2022-07-25T16:17:36.518Z,69.12
2022-07-25T16:20:04.199Z,69.31
2022-07-25T16:22:30.584Z,69.34
2022-07-25T16:24:57.067Z,69.45
2022-07-25T16:27:23.487Z,69.40
2022-07-25T16:29:51.426Z,69.01
2022-07-25T16:32:19.119Z,69.27
2022-07-25T16:34:47.275Z,69.10
2022-07-25T16:37:13.676Z,69.19
2022-07-25T16:39:40.131Z,69.48
2022-07-25T16:42:06.585Z,69.16
2022-07-25T16:44:33.020Z,69.25
2022-07-25T16:46:59.488Z,69.09
2022-07-25T16:49:26.085Z,69.34
2022-07-25T16:51:52.549Z,69.32
2022-07-25T16:54:18.990Z,69.59
2022-07-25T16:56:46.637Z,69.47
2022-07-25T16:59:14.718Z,69.44
2022-07-25T17:01:41.180Z,69.52
2022-07-25T17:04:08.010Z,69.37
2022-07-25T17:06:34.468Z,69.28
2022-07-25T17:09:00.904Z,69.59
2022-07-25T17:11:27.558Z,69.76
2022-07-25T17:13:54.051Z,69.80
2022-07-25T17:16:20.546Z,69.77
2022-07-25T17:18:47.039Z,69.74
2022-07-25T17:21:15.358Z,69.74
2022-07-25T17:23:41.796Z,69.96
2022-07-25T17:26:08.332Z,69.72
2022-07-25T17:28:35.034Z,69.66
2022-07-25T17:31:01.739Z,69.84
2022-07-25T17:33:28.120Z,69.71
2022-07-25T17:35:54.617Z,69.67
2022-07-25T17:38:25.868Z,69.54
2022-07-25T17:40:53.380Z,69.62
2022-07-25T17:43:19.921Z,69.74
2022-07-25T17:45:46.358Z,69.62
2022-07-25T17:48:12.857Z,69.72
2022-07-25T17:50:39.282Z,69.85
2022-07-25T17:53:05.948Z,70.26
2022-07-25T17:55:36.866Z,70.20
2022-07-25T17:58:05.253Z,70.32
2022-07-25T18:00:31.659Z,70.64
2022-07-25T18:02:58.136Z,70.60
2022-07-25T18:05:24.886Z,70.76
2022-07-25T18:07:51.722Z,70.49
2022-07-25T18:10:18.460Z,70.98
2022-07-25T18:12:45.066Z,70.96
2022-07-25T18:15:12.320Z,71.05
2022-07-25T18:17:39.062Z,71.39
2022-07-25T18:20:05.764Z,71.25
2022-07-25T18:22:32.203Z,71.22
2022-07-25T18:24:58.609Z,71.08
2022-07-25T18:27:25.439Z,71.17
2022-07-25T18:29:52.200Z,71.37
2022-07-25T18:32:18.684Z,71.33
2022-07-25T18:34:45.177Z,72.18
2022-07-25T18:37:11.633Z,72.18
2022-07-25T18:39:38.373Z,72.31
2022-07-25T18:42:04.790Z,71.99
2022-07-25T18:44:32.522Z,72.15
2022-07-25T18:46:59.090Z,73.07
2022-07-25T18:49:27.173Z,72.43
2022-07-25T18:51:53.531Z,73.18
2022-07-25T18:54:19.910Z,73.00
2022-07-25T18:56:46.356Z,73.47
2022-07-25T18:59:12.796Z,73.57
2022-07-25T19:01:39.485Z,73.82
2022-07-25T19:04:06.591Z,73.94
2022-07-25T19:06:33.481Z,74.19
2022-07-25T19:09:00.016Z,73.75
2022-07-25T19:11:29.310Z,73.89
2022-07-25T19:13:55.676Z,73.42
2022-07-25T19:16:24.042Z,73.27
2022-07-25T19:18:50.492Z,73.64
2022-07-25T19:21:16.960Z,73.53
2022-07-25T19:23:49.763Z,73.66
2022-07-25T19:26:16.879Z,73.81
2022-07-25T19:28:43.386Z,73.63
2022-07-25T19:31:09.871Z,74.15
2022-07-25T19:33:36.452Z,73.67
2022-07-25T19:36:04.137Z,73.68
2022-07-25T19:38:30.639Z,73.75
2022-07-25T19:40:57.140Z,73.66
2022-07-25T19:43:23.562Z,74.34
2022-07-25T19:45:50.010Z,74.65
2022-07-25T19:48:17.430Z,74.29
2022-07-25T19:50:44.748Z,74.02
2022-07-25T19:53:11.184Z,74.56
2022-07-25T19:55:37.643Z,74.01
2022-07-25T19:58:04.118Z,74.20
2022-07-25T20:00:30.624Z,74.44
2022-07-25T20:02:57.091Z,74.37
2022-07-25T20:05:23.607Z,74.48
2022-07-25T20:07:50.033Z,74.50
2022-07-25T20:10:17.732Z,74.42
2022-07-25T20:12:44.440Z,74.47
2022-07-25T20:15:10.906Z,74.61
2022-07-25T20:17:37.327Z,74.09
2022-07-25T20:20:05.082Z,74.50
2022-07-25T20:22:35.729Z,74.76
2022-07-25T20:25:02.243Z,74.50
2022-07-25T20:27:28.759Z,74.63
2022-07-25T20:29:55.217Z,74.55
2022-07-25T20:32:22.216Z,74.67
2022-07-25T20:34:48.661Z,74.45
2022-07-25T20:37:15.145Z,74.52
2022-07-25T20:39:41.718Z,74.68
2022-07-25T20:42:08.160Z,73.34
2022-07-25T20:44:34.646Z,74.47
2022-07-25T20:47:01.000Z,74.30
2022-07-25T20:49:27.549Z,74.21
2022-07-25T20:51:54.726Z,74.17
2022-07-25T20:54:21.302Z,74.06
2022-07-25T20:56:47.846Z,73.98
2022-07-25T20:59:14.338Z,74.22
2022-07-25T21:01:40.873Z,74.01
2022-07-25T21:04:07.982Z,73.95
2022-07-25T21:06:34.939Z,73.88
2022-07-25T21:09:03.647Z,73.73
2022-07-25T21:11:30.091Z,74.00
2022-07-25T21:13:56.956Z,73.76
2022-07-25T21:16:23.496Z,73.92
2022-07-25T21:18:49.956Z,73.96
2022-07-25T21:21:16.870Z,73.70
2022-07-25T21:23:43.302Z,73.66
2022-07-25T21:26:10.524Z,73.90
2022-07-25T21:28:37.008Z,73.44
2022-07-25T21:31:03.529Z,73.55
2022-07-25T21:33:29.943Z,73.68
2022-07-25T21:35:56.352Z,73.88
2022-07-25T21:38:26.664Z,73.85
2022-07-25T21:40:54.393Z,73.67
2022-07-25T21:43:20.920Z,73.62
2022-07-25T21:45:47.388Z,73.57
2022-07-25T21:48:13.948Z,73.54
2022-07-25T21:50:43.863Z,73.74
2022-07-25T21:53:12.423Z,73.63
2022-07-25T21:55:39.017Z,73.35
2022-07-25T21:58:05.630Z,73.44
2022-07-25T22:00:33.451Z,73.81
2022-07-25T22:03:00.710Z,74.02
2022-07-25T22:05:27.270Z,74.31
2022-07-25T22:07:53.763Z,74.52
2022-07-25T22:10:20.920Z,74.90
2022-07-25T22:12:47.565Z,74.65
2022-07-25T22:15:14.182Z,74.89
2022-07-25T22:17:48.301Z,75.33
2022-07-25T22:20:16.743Z,76.57
2022-07-25T22:22:43.258Z,76.91
2022-07-25T22:25:10.234Z,77.22
2022-07-25T22:27:36.733Z,77.32
2022-07-25T22:30:04.527Z,78.48
2022-07-25T22:32:31.136Z,77.72
2022-07-25T22:34:57.591Z,78.12
2022-07-25T22:37:24.120Z,77.21
2022-07-25T22:39:59.064Z,77.45
2022-07-25T22:42:28.139Z,77.04
2022-07-25T22:44:54.639Z,77.06
2022-07-25T22:47:21.093Z,76.45
2022-07-25T22:49:47.621Z,76.73
2022-07-25T22:52:14.136Z,76.72
2022-07-25T22:54:40.612Z,76.34
2022-07-25T22:57:07.214Z,76.30
2022-07-25T22:59:33.652Z,76.65
2022-07-25T23:02:00.137Z,76.18
2022-07-25T23:04:26.627Z,76.04
2022-07-25T23:06:53.217Z,76.02
2022-07-25T23:09:19.740Z,76.66
2022-07-25T23:11:46.283Z,76.14
2022-07-25T23:14:12.799Z,76.85
2022-07-25T23:16:39.450Z,77.16
2022-07-25T23:19:06.345Z,76.20
2022-07-25T23:21:33.096Z,77.12
2022-07-25T23:24:00.120Z,76.42
2022-07-25T23:26:27.339Z,76.24
2022-07-25T23:28:53.925Z,76.90
2022-07-25T23:31:38.713Z,76.92
2022-07-25T23:34:30.022Z,76.60
2022-07-25T23:37:27.674Z,76.82
2022-07-25T23:40:31.119Z,76.28
2022-07-25T23:43:26.768Z,76.37
2022-07-25T23:46:02.908Z,76.21
2022-07-25T23:48:29.353Z,76.25
2022-07-25T23:50:55.854Z,77.01
2022-07-25T23:53:22.221Z,76.73
2022-07-25T23:55:48.645Z,76.41
2022-07-25T23:58:15.068Z,76.31
